Time;durP1;ratioP1;P1;durP2;ratioP2;P2;SDS_P1;SDS_P2;PMS_P1;PMS_P2;Temp;Humidity;BMP_temperature;BMP_pressure;BME280_temperature;BME280_humidity;BME280_pressure;Samples;Min_cycle;Max_cycle;Signal;HPM_P1;HPM_P2
2021/05/19 00:01:14;;;;;;;8.13;3.47;;;15.80;68.90;;;;;;5067668;28;20123;-62
2021/05/19 00:03:40;;;;;;;8.82;3.08;;;15.80;69.00;;;;;;5066697;28;20040;-62
2021/05/19 00:06:05;;;;;;;8.88;3.20;;;15.80;69.20;;;;;;5064782;28;20037;-61
2021/05/19 00:08:31;;;;;;;5.20;2.63;;;15.80;69.20;;;;;;5067668;28;20025;-62
2021/05/19 00:10:56;;;;;;;4.00;2.30;;;15.70;69.40;;;;;;5061837;28;20025;-62
2021/05/19 00:13:22;;;;;;;6.13;2.65;;;15.70;69.50;;;;;;5059591;28;20419;-61
2021/05/19 00:15:47;;;;;;;7.05;2.25;;;15.60;69.50;;;;;;5056061;28;20589;-62
2021/05/19 00:18:13;;;;;;;2.58;2.03;;;15.60;69.70;;;;;;5059997;28;20048;-61
2021/05/19 00:20:39;;;;;;;4.15;2.40;;;15.60;69.80;;;;;;5082325;28;20115;-61
2021/05/19 00:23:04;;;;;;;4.47;2.20;;;15.50;69.90;;;;;;5061246;28;20024;-61
2021/05/19 00:25:30;;;;;;;4.65;2.88;;;15.50;69.90;;;;;;5060640;28;20043;-61
2021/05/19 00:27:55;;;;;;;10.93;5.80;;;15.50;70.00;;;;;;5053200;28;20572;-61
2021/05/19 00:30:21;;;;;;;9.07;4.40;;;15.50;70.10;;;;;;5042595;28;20432;-61
2021/05/19 00:32:47;;;;;;;5.30;3.80;;;15.50;70.20;;;;;;5059368;28;20598;-61
2021/05/19 00:35:13;;;;;;;6.47;3.10;;;15.40;70.30;;;;;;5043814;28;20075;-61
2021/05/19 00:37:39;;;;;;;6.75;3.42;;;15.40;70.40;;;;;;5072010;28;20388;-61
2021/05/19 00:40:05;;;;;;;7.35;3.05;;;15.30;70.30;;;;;;5037300;28;20031;-61
2021/05/19 00:42:31;;;;;;;5.65;3.20;;;15.30;70.50;;;;;;5054056;28;20025;-61
2021/05/19 00:44:56;;;;;;;6.10;3.10;;;15.30;70.50;;;;;;5057990;28;20384;-61
2021/05/19 00:47:32;;;;;;;5.13;2.80;;;15.30;70.60;;;;;;5058927;28;20405;-61
2021/05/19 00:49:58;;;;;;;3.95;2.25;;;15.20;70.60;;;;;;5063100;28;20468;-61
2021/05/19 00:52:23;;;;;;;3.75;2.47;;;15.20;70.70;;;;;;5037322;28;20027;-61
2021/05/19 00:54:49;;;;;;;3.75;2.20;;;15.30;70.90;;;;;;5066719;28;20060;-61
2021/05/19 00:57:14;;;;;;;7.38;2.78;;;15.20;70.90;;;;;;5034893;28;20032;-61
2021/05/19 00:59:40;;;;;;;4.30;2.60;;;15.20;70.90;;;;;;5045062;28;20033;-61
2021/05/19 01:02:05;;;;;;;3.38;2.05;;;15.10;70.90;;;;;;5032943;28;20028;-61
2021/05/19 01:04:31;;;;;;;3.60;2.10;;;15.10;71.00;;;;;;5047777;28;20041;-61
2021/05/19 01:07:00;;;;;;;5.20;2.40;;;15.10;71.10;;;;;;5067908;28;20052;-62
2021/05/19 01:09:35;;;;;;;5.57;2.10;;;15.00;71.20;;;;;;5063378;28;20025;-61
2021/05/19 01:12:03;;;;;;;4.20;1.93;;;15.00;71.20;;;;;;5056941;28;20028;-61
2021/05/19 01:14:30;;;;;;;5.38;2.65;;;15.00;71.30;;;;;;5061956;28;20032;-61
2021/05/19 01:16:56;;;;;;;4.15;1.90;;;15.00;71.40;;;;;;5029512;28;20263;-61
2021/05/19 01:19:21;;;;;;;5.35;1.95;;;15.00;71.40;;;;;;5044698;28;20023;-60
2021/05/19 01:21:48;;;;;;;3.67;1.85;;;15.00;71.40;;;;;;5028563;28;20463;-61
2021/05/19 01:24:13;;;;;;;2.33;1.73;;;14.90;71.40;;;;;;5046699;28;20028;-62
2021/05/19 01:26:39;;;;;;;1.65;1.40;;;14.90;71.40;;;;;;5041337;28;20404;-61
2021/05/19 01:29:04;;;;;;;3.28;1.90;;;14.90;71.60;;;;;;5065473;28;20450;-61
2021/05/19 01:31:30;;;;;;;3.33;1.85;;;14.90;71.70;;;;;;5047039;28;20492;-61
2021/05/19 01:33:55;;;;;;;3.75;1.63;;;14.90;71.70;;;;;;5048187;28;20808;-61
2021/05/19 01:36:21;;;;;;;4.28;1.80;;;14.80;71.70;;;;;;5050784;28;20036;-61
2021/05/19 01:38:47;;;;;;;2.90;1.80;;;14.80;71.80;;;;;;5049532;28;20543;-61
2021/05/19 01:41:12;;;;;;;1.98;1.63;;;14.80;71.90;;;;;;5068233;28;20020;-62
2021/05/19 01:43:38;;;;;;;4.05;1.70;;;14.80;71.90;;;;;;5077352;28;20297;-62
2021/05/19 01:46:04;;;;;;;2.75;1.40;;;14.80;71.90;;;;;;5048470;28;20122;-61
2021/05/19 01:48:31;;;;;;;3.30;1.42;;;14.70;72.00;;;;;;5029170;28;20108;-61
2021/05/19 01:50:56;;;;;;;4.32;2.17;;;14.70;72.10;;;;;;5048824;28;20361;-61
2021/05/19 01:53:22;;;;;;;2.97;1.42;;;14.70;72.10;;;;;;5035479;28;20114;-61
2021/05/19 01:55:48;;;;;;;3.03;1.70;;;14.70;72.20;;;;;;5051858;28;20024;-62
2021/05/19 01:58:13;;;;;;;7.85;1.55;;;14.70;72.30;;;;;;5076849;28;20063;-61
2021/05/19 02:00:39;;;;;;;1.42;1.20;;;14.70;72.30;;;;;;5033190;28;20119;-61
2021/05/19 02:03:05;;;;;;;2.00;1.17;;;14.70;72.30;;;;;;5074955;28;20021;-61
2021/05/19 02:05:32;;;;;;;2.30;1.45;;;14.60;72.40;;;;;;5070051;28;20029;-61
2021/05/19 02:07:57;;;;;;;3.28;1.27;;;14.60;72.50;;;;;;5033122;28;20507;-61
2021/05/19 02:10:23;;;;;;;6.47;1.58;;;14.60;72.50;;;;;;5041125;28;20020;-61
2021/05/19 02:12:49;;;;;;;7.45;1.45;;;14.60;72.70;;;;;;5054956;28;20075;-62
2021/05/19 02:15:17;;;;;;;5.88;1.73;;;14.50;72.70;;;;;;5052899;28;20412;-61
2021/05/19 02:17:43;;;;;;;4.57;1.52;;;14.50;72.80;;;;;;5046814;28;20028;-61
2021/05/19 02:20:32;;;;;;;2.47;1.48;;;14.50;72.90;;;;;;5051427;28;20041;-61
2021/05/19 02:22:58;;;;;;;3.50;2.58;;;14.50;73.00;;;;;;5071195;28;20460;-61
2021/05/19 02:25:23;;;;;;;5.72;2.55;;;14.50;73.00;;;;;;5049985;28;20284;-61
2021/05/19 02:27:50;;;;;;;4.72;2.10;;;14.70;73.10;;;;;;5064500;28;20033;-61
2021/05/19 02:30:16;;;;;;;4.20;1.98;;;14.50;73.10;;;;;;5050711;28;20089;-61
2021/05/19 02:32:42;;;;;;;2.75;2.08;;;14.40;73.20;;;;;;5070113;28;20021;-61
2021/05/19 02:35:08;;;;;;;4.35;2.42;;;14.40;73.30;;;;;;5047298;28;20027;-61
2021/05/19 02:37:34;;;;;;;4.78;2.15;;;14.40;73.30;;;;;;5054966;28;20040;-60
2021/05/19 02:39:59;;;;;;;4.72;2.42;;;14.40;74.10;;;;;;5058627;28;20061;-62
2021/05/19 02:42:25;;;;;;;2.58;1.77;;;14.40;73.50;;;;;;5069947;28;20024;-61
2021/05/19 02:44:50;;;;;;;5.93;2.40;;;14.40;73.60;;;;;;5051279;28;20028;-61
2021/05/19 02:47:16;;;;;;;5.13;2.00;;;14.30;73.60;;;;;;5049359;28;20032;-60
2021/05/19 02:49:41;;;;;;;6.35;2.15;;;14.30;73.60;;;;;;5043236;28;20464;-61
2021/05/19 02:52:07;;;;;;;2.78;2.05;;;14.30;73.70;;;;;;5050543;28;20517;-61
2021/05/19 02:54:33;;;;;;;4.47;2.03;;;14.30;73.80;;;;;;5050618;28;20450;-61
2021/05/19 02:56:59;;;;;;;2.28;1.80;;;14.30;73.80;;;;;;5049411;28;20472;-61
2021/05/19 02:59:25;;;;;;;4.18;1.80;;;14.30;73.90;;;;;;5064630;28;20028;-61
2021/05/19 03:01:50;;;;;;;7.15;2.10;;;14.20;73.90;;;;;;5065815;28;20048;-61
2021/05/19 03:04:16;;;;;;;3.65;1.88;;;14.20;74.00;;;;;;5046502;28;20040;-61
2021/05/19 03:06:41;;;;;;;5.90;1.80;;;14.20;74.00;;;;;;5065187;28;20039;-61
2021/05/19 03:09:07;;;;;;;4.32;2.00;;;14.20;74.00;;;;;;5047661;28;20750;-61
2021/05/19 03:11:33;;;;;;;3.90;1.50;;;14.20;74.10;;;;;;5069662;28;20039;-61
2021/05/19 03:13:58;;;;;;;4.68;1.75;;;14.20;74.10;;;;;;5047843;28;20360;-61
2021/05/19 03:16:26;;;;;;;3.30;1.35;;;14.10;74.10;;;;;;5061183;28;20519;-62
2021/05/19 03:18:51;;;;;;;3.83;1.60;;;14.10;74.20;;;;;;5076035;28;20513;-61
2021/05/19 03:21:17;;;;;;;3.25;1.60;;;14.10;74.30;;;;;;5071621;28;20120;-61
2021/05/19 03:23:42;;;;;;;1.65;1.40;;;14.10;74.40;;;;;;5072754;28;20024;-61
2021/05/19 03:26:08;;;;;;;4.35;2.22;;;14.10;74.40;;;;;;5035707;28;20492;-61
2021/05/19 03:28:34;;;;;;;2.60;1.42;;;14.10;74.40;;;;;;5063816;28;20504;-61
2021/05/19 03:30:59;;;;;;;2.00;1.20;;;14.10;74.40;;;;;;5052062;28;20033;-61
2021/05/19 03:33:25;;;;;;;3.40;1.58;;;14.10;74.40;;;;;;5063519;28;20043;-62
2021/05/19 03:35:50;;;;;;;2.03;1.33;;;14.10;74.50;;;;;;5070880;28;20028;-61
2021/05/19 03:38:16;;;;;;;1.65;1.40;;;14.10;74.50;;;;;;5052748;28;20029;-61
2021/05/19 03:40:41;;;;;;;4.13;1.65;;;14.00;74.50;;;;;;5074978;28;20028;-61
2021/05/19 03:43:07;;;;;;;2.63;1.50;;;14.00;74.50;;;;;;5064462;28;20060;-61
2021/05/19 03:45:33;;;;;;;1.98;1.40;;;14.00;74.60;;;;;;5062648;28;20519;-61
2021/05/19 03:47:58;;;;;;;2.30;1.60;;;14.00;74.60;;;;;;5066912;28;20033;-61
2021/05/19 03:50:25;;;;;;;1.70;1.20;;;14.00;74.70;;;;;;5066494;28;20415;-61
2021/05/19 03:52:51;;;;;;;2.53;1.27;;;14.00;74.70;;;;;;5032378;28;20457;-61
2021/05/19 03:55:17;;;;;;;1.65;1.10;;;14.00;74.70;;;;;;5042339;28;20137;-62
2021/05/19 03:57:42;;;;;;;1.52;1.30;;;14.00;74.70;;;;;;5044281;28;20411;-61
2021/05/19 04:00:13;;;;;;;6.90;1.85;;;14.00;74.80;;;;;;5061703;28;20159;-61
2021/05/19 04:02:39;;;;;;;6.55;1.90;;;14.00;74.80;;;;;;5062640;28;20115;-61
2021/05/19 04:05:05;;;;;;;85.13;9.95;;;14.00;74.90;;;;;;5045775;28;20468;-61
2021/05/19 04:07:31;;;;;;;82.32;10.20;;;14.00;74.90;;;;;;5062421;28;20329;-61
2021/05/19 04:09:56;;;;;;;62.72;9.15;;;14.00;75.00;;;;;;5025085;28;20040;-61
2021/05/19 04:12:22;;;;;;;69.70;6.70;;;13.90;74.90;;;;;;5042221;28;20021;-62
2021/05/19 04:14:47;;;;;;;55.95;7.43;;;13.90;74.90;;;;;;5028660;28;20032;-62
2021/05/19 04:17:13;;;;;;;44.20;6.65;;;14.00;75.00;;;;;;5063849;28;20032;-61
2021/05/19 04:19:38;;;;;;;47.15;5.65;;;13.90;75.00;;;;;;5062894;28;20030;-62
2021/05/19 04:22:04;;;;;;;37.05;6.20;;;13.90;75.00;;;;;;5028691;28;20028;-61
2021/05/19 04:24:29;;;;;;;33.40;5.13;;;13.90;75.00;;;;;;5063739;28;20037;-60
2021/05/19 04:26:55;;;;;;;50.47;6.70;;;13.90;75.10;;;;;;5062335;28;20036;-61
2021/05/19 04:29:20;;;;;;;53.92;6.60;;;13.90;75.10;;;;;;5040214;28;20027;-61
2021/05/19 04:31:46;;;;;;;42.95;5.93;;;13.90;75.20;;;;;;5057109;28;20388;-61
2021/05/19 04:34:11;;;;;;;116.95;10.20;;;13.90;75.50;;;;;;5019367;28;20024;-62
2021/05/19 04:36:37;;;;;;;119.13;9.70;;;13.90;75.50;;;;;;5032637;28;20753;-61
2021/05/19 04:39:04;;;;;;;118.50;9.82;;;13.90;75.70;;;;;;5057200;28;20027;-62
2021/05/19 04:41:29;;;;;;;96.95;9.80;;;13.90;75.90;;;;;;5042467;28;20044;-61
2021/05/19 04:43:55;;;;;;;86.18;9.32;;;13.90;75.90;;;;;;5057293;28;20033;-61
2021/05/19 04:46:20;;;;;;;64.15;7.95;;;13.90;75.90;;;;;;5042997;28;20028;-60
2021/05/19 04:48:46;;;;;;;146.23;10.55;;;13.90;75.90;;;;;;5055685;28;20056;-60
2021/05/19 04:51:11;;;;;;;115.57;9.90;;;13.80;75.70;;;;;;5042608;28;20032;-61
2021/05/19 04:53:37;;;;;;;98.95;9.35;;;13.90;75.60;;;;;;5038464;28;20479;-61
2021/05/19 04:56:03;;;;;;;97.72;8.75;;;13.90;75.60;;;;;;5041277;28;20499;-63
2021/05/19 04:58:28;;;;;;;154.90;12.35;;;13.90;75.70;;;;;;5029737;28;20531;-61
2021/05/19 05:00:54;;;;;;;172.32;14.45;;;13.90;75.60;;;;;;5031356;28;20499;-61
2021/05/19 05:03:19;;;;;;;181.55;12.80;;;13.90;75.70;;;;;;5064434;28;20035;-61
2021/05/19 05:05:46;;;;;;;128.20;10.88;;;13.90;75.80;;;;;;5058209;28;20087;-63
2021/05/19 05:08:11;;;;;;;115.60;10.85;;;13.80;75.80;;;;;;5029262;28;20020;-62
2021/05/19 05:10:37;;;;;;;160.85;12.68;;;13.90;75.90;;;;;;5042469;28;20099;-61
2021/05/19 05:13:02;;;;;;;178.75;14.30;;;13.90;75.80;;;;;;5055560;28;20397;-61
2021/05/19 05:15:28;;;;;;;131.25;11.57;;;13.90;75.60;;;;;;5039489;28;20055;-61
2021/05/19 05:17:53;;;;;;;111.88;9.25;;;13.90;75.70;;;;;;5050371;28;20035;-61
2021/05/19 05:20:21;;;;;;;115.25;11.73;;;13.90;75.70;;;;;;5038139;28;20045;-61
2021/05/19 05:22:47;;;;;;;107.63;9.90;;;13.90;75.70;;;;;;5048530;28;20024;-61
2021/05/19 05:25:13;;;;;;;114.93;10.63;;;13.90;75.80;;;;;;5022503;28;20045;-62
2021/05/19 05:27:39;;;;;;;111.90;9.82;;;13.90;75.90;;;;;;5072792;28;20024;-61
2021/05/19 05:30:05;;;;;;;96.88;9.52;;;13.90;76.10;;;;;;5054740;28;20044;-61
2021/05/19 05:32:30;;;;;;;100.80;7.93;;;13.90;76.20;;;;;;5047114;28;20395;-61
2021/05/19 05:34:56;;;;;;;76.85;7.80;;;13.90;76.30;;;;;;5053794;28;20036;-61
2021/05/19 05:37:23;;;;;;;85.40;8.13;;;13.90;76.50;;;;;;5075934;28;20040;-61
2021/05/19 05:39:48;;;;;;;73.10;6.25;;;13.90;76.60;;;;;;5060915;28;20025;-61
2021/05/19 05:42:14;;;;;;;72.32;7.40;;;13.90;77.10;;;;;;5029799;28;20047;-61
2021/05/19 05:44:39;;;;;;;60.70;6.07;;;13.90;77.00;;;;;;5054572;28;20070;-61
2021/05/19 05:47:05;;;;;;;56.10;6.63;;;13.90;77.10;;;;;;5051371;28;20034;-62
2021/05/19 05:49:30;;;;;;;49.60;6.85;;;13.90;77.20;;;;;;5064154;28;20013;-61
2021/05/19 05:51:56;;;;;;;56.83;6.80;;;13.90;77.00;;;;;;5067487;28;20481;-62
2021/05/19 05:54:21;;;;;;;64.78;6.00;;;13.90;77.00;;;;;;5064847;28;20033;-62
2021/05/19 05:56:47;;;;;;;49.90;6.25;;;13.90;77.00;;;;;;5069578;28;20047;-62
2021/05/19 05:59:12;;;;;;;49.58;6.03;;;13.90;77.10;;;;;;5044491;28;20467;-62
2021/05/19 06:01:38;;;;;;;35.22;5.47;;;13.90;77.20;;;;;;5065440;28;20028;-62
2021/05/19 06:04:03;;;;;;;47.63;6.30;;;13.90;77.20;;;;;;5063850;28;20033;-62
2021/05/19 06:06:29;;;;;;;48.58;6.05;;;13.90;77.20;;;;;;5049144;28;20361;-61
2021/05/19 06:08:54;;;;;;;39.67;5.22;;;13.90;77.20;;;;;;5059511;28;20097;-62
2021/05/19 06:11:20;;;;;;;37.38;5.05;;;13.90;77.30;;;;;;5073012;28;20032;-61
2021/05/19 06:13:45;;;;;;;43.78;5.35;;;13.90;77.30;;;;;;5061315;28;20109;-61
2021/05/19 06:16:11;;;;;;;38.95;4.63;;;13.90;77.50;;;;;;5063647;28;20036;-62
2021/05/19 06:18:37;;;;;;;45.13;4.95;;;13.90;77.50;;;;;;5042039;28;20021;-62
2021/05/19 06:21:02;;;;;;;36.58;4.15;;;13.90;77.50;;;;;;5046996;28;20079;-62
2021/05/19 06:23:28;;;;;;;35.80;4.43;;;13.90;77.40;;;;;;5036803;28;20017;-62
2021/05/19 06:25:53;;;;;;;36.50;4.57;;;13.90;77.50;;;;;;5070378;28;20020;-62
2021/05/19 06:28:19;;;;;;;39.08;4.72;;;13.90;77.30;;;;;;5054179;28;20033;-62
2021/05/19 06:30:45;;;;;;;31.13;3.47;;;13.90;77.40;;;;;;5044494;28;20475;-62
2021/05/19 06:33:10;;;;;;;23.23;3.65;;;13.90;77.30;;;;;;5050742;28;20122;-62
2021/05/19 06:35:36;;;;;;;27.30;3.75;;;14.00;77.50;;;;;;5049825;28;20089;-61
2021/05/19 06:38:01;;;;;;;31.98;4.05;;;14.00;77.50;;;;;;5046512;28;20024;-62
2021/05/19 06:40:27;;;;;;;22.08;3.55;;;14.00;77.30;;;;;;5069540;28;20036;-62
2021/05/19 06:42:52;;;;;;;27.27;3.45;;;14.00;77.20;;;;;;5045691;28;20496;-62
2021/05/19 06:45:18;;;;;;;28.05;3.67;;;14.00;77.40;;;;;;5054690;28;20552;-62
2021/05/19 06:47:43;;;;;;;24.05;3.92;;;14.00;77.50;;;;;;5065010;28;20017;-61
2021/05/19 06:50:09;;;;;;;25.35;4.03;;;14.00;77.40;;;;;;5052980;28;20059;-61
2021/05/19 06:52:35;;;;;;;26.08;3.72;;;14.00;77.60;;;;;;5059997;28;20284;-62
2021/05/19 06:55:01;;;;;;;19.95;3.60;;;14.00;78.10;;;;;;5075511;28;20313;-62
2021/05/19 06:57:27;;;;;;;29.13;4.15;;;14.00;77.70;;;;;;5075669;28;20274;-61
2021/05/19 06:59:53;;;;;;;27.67;4.22;;;14.00;77.80;;;;;;5064499;28;20592;-62
2021/05/19 07:02:18;;;;;;;25.42;4.18;;;14.10;78.00;;;;;;5066727;28;20049;-62
2021/05/19 07:04:44;;;;;;;16.85;3.38;;;14.10;78.70;;;;;;5061534;28;20062;-62
2021/05/19 07:07:09;;;;;;;21.65;3.40;;;14.00;78.30;;;;;;5062757;28;20049;-61
2021/05/19 07:09:36;;;;;;;16.17;2.50;;;14.00;78.60;;;;;;5051304;28;20462;-62
2021/05/19 07:12:01;;;;;;;16.00;2.63;;;14.00;78.90;;;;;;5023800;28;20028;-61
2021/05/19 07:14:27;;;;;;;15.27;2.80;;;14.00;79.30;;;;;;5065382;28;20020;-62
2021/05/19 07:16:54;;;;;;;23.70;2.42;;;13.90;79.50;;;;;;5051807;28;20373;-61
2021/05/19 07:19:20;;;;;;;18.83;2.63;;;13.90;79.90;;;;;;5072304;28;20029;-61
2021/05/19 07:21:46;;;;;;;12.15;2.15;;;13.90;80.30;;;;;;5069415;28;20037;-61
2021/05/19 07:24:12;;;;;;;19.42;2.00;;;13.90;80.20;;;;;;5043564;28;20052;-62
2021/05/19 07:26:39;;;;;;;12.63;2.15;;;13.90;80.20;;;;;;5048253;28;20024;-62
2021/05/19 07:29:05;;;;;;;8.00;1.90;;;13.80;80.40;;;;;;5070449;28;20041;-62
2021/05/19 07:31:31;;;;;;;17.30;2.33;;;13.90;80.50;;;;;;5067557;28;20027;-61
2021/05/19 07:33:57;;;;;;;15.95;2.00;;;13.80;80.70;;;;;;5067071;28;20116;-61
2021/05/19 07:36:22;;;;;;;5.43;1.60;;;13.80;80.60;;;;;;5072915;28;20111;-62
2021/05/19 07:38:48;;;;;;;9.85;2.33;;;13.80;80.70;;;;;;5070630;28;20035;-61
2021/05/19 07:41:14;;;;;;;11.90;2.00;;;13.80;80.90;;;;;;5042035;28;20031;-61
2021/05/19 07:43:39;;;;;;;8.80;1.60;;;13.80;81.20;;;;;;5053158;28;20036;-61
2021/05/19 07:46:05;;;;;;;44.80;5.38;;;13.80;81.40;;;;;;5073872;28;20471;-61
2021/05/19 07:48:30;;;;;;;17.50;2.67;;;13.80;81.60;;;;;;5052707;28;20032;-61
2021/05/19 07:50:56;;;;;;;15.65;2.70;;;13.80;81.90;;;;;;5069822;28;20787;-61
2021/05/19 07:53:21;;;;;;;26.67;2.47;;;13.80;81.80;;;;;;5068407;28;20674;-61
2021/05/19 07:55:56;;;;;;;9.57;2.00;;;13.80;81.50;;;;;;5070060;28;20122;-62
2021/05/19 08:03:57;;;;;;;13.85;2.05;;;14.00;81.40;;;;;;5032764;28;20053;-61
2021/05/19 08:06:22;;;;;;;14.82;2.00;;;14.00;81.10;;;;;;5067332;28;20179;-61
2021/05/19 08:08:48;;;;;;;20.27;2.33;;;13.90;80.90;;;;;;5062846;28;20673;-61
2021/05/19 08:11:16;;;;;;;12.15;2.03;;;14.00;81.30;;;;;;5033590;28;20032;-61
2021/05/19 08:13:47;;;;;;;11.25;2.60;;;14.00;80.70;;;;;;5041231;28;20028;-61
2021/05/19 08:16:13;;;;;;;13.45;2.63;;;14.10;80.60;;;;;;5065168;28;20040;-61
2021/05/19 08:18:38;;;;;;;23.33;2.28;;;14.10;80.40;;;;;;5040790;28;20028;-61
2021/05/19 08:21:04;;;;;;;23.70;2.50;;;14.10;80.40;;;;;;5062261;28;20050;-62
2021/05/19 08:23:29;;;;;;;21.85;2.50;;;14.10;80.10;;;;;;5056769;28;20056;-61
2021/05/19 08:25:58;;;;;;;22.98;2.80;;;14.10;79.80;;;;;;5055665;28;20484;-61
2021/05/19 08:28:24;;;;;;;21.50;2.45;;;14.20;80.00;;;;;;5043280;28;20617;-61
2021/05/19 08:30:49;;;;;;;10.68;2.65;;;14.20;80.10;;;;;;5037835;28;20017;-62
2021/05/19 08:33:15;;;;;;;19.85;2.80;;;14.20;80.00;;;;;;5051613;28;20051;-61
2021/05/19 08:35:40;;;;;;;21.33;2.53;;;14.20;80.10;;;;;;5015668;28;20400;-61
2021/05/19 08:38:06;;;;;;;17.20;2.03;;;14.20;79.50;;;;;;5059906;28;20523;-61
2021/05/19 08:40:32;;;;;;;15.35;2.50;;;14.20;78.80;;;;;;5043866;28;20021;-62
2021/05/19 08:42:57;;;;;;;17.30;2.17;;;14.20;78.40;;;;;;5042797;28;20025;-62
2021/05/19 08:45:23;;;;;;;7.35;1.55;;;14.20;78.20;;;;;;5054982;28;20037;-61
2021/05/19 08:47:52;;;;;;;10.32;1.80;;;14.20;77.90;;;;;;5036363;28;20264;-61
2021/05/19 08:50:17;;;;;;;13.15;1.75;;;14.20;77.80;;;;;;5028228;28;20039;-61
2021/05/19 08:52:46;;;;;;;17.65;2.08;;;14.20;77.70;;;;;;5045733;28;20033;-61
2021/05/19 08:55:12;;;;;;;16.90;1.48;;;14.20;77.40;;;;;;5035961;28;20169;-62
2021/05/19 08:57:40;;;;;;;9.65;2.40;;;14.20;77.20;;;;;;5062197;28;20078;-61
2021/05/19 09:00:08;;;;;;;12.85;1.52;;;14.30;77.00;;;;;;5044257;28;20472;-62
2021/05/19 09:02:34;;;;;;;8.63;1.60;;;14.30;76.90;;;;;;5047064;28;20056;-62
2021/05/19 09:05:00;;;;;;;14.80;1.95;;;14.30;76.80;;;;;;5042359;28;20480;-61
2021/05/19 09:07:25;;;;;;;8.18;1.50;;;14.30;76.60;;;;;;5043914;28;20059;-62
2021/05/19 09:09:51;;;;;;;13.60;2.15;;;14.40;76.50;;;;;;5045711;28;20079;-61
2021/05/19 09:12:18;;;;;;;8.05;1.63;;;14.40;76.50;;;;;;5067328;28;20370;-61
2021/05/19 09:14:59;;;;;;;10.20;1.73;;;14.40;76.50;;;;;;5046681;28;20082;-61
2021/05/19 09:17:31;;;;;;;11.45;1.83;;;14.40;76.40;;;;;;5061631;28;20027;-62
2021/05/19 09:20:02;;;;;;;12.15;1.55;;;14.40;76.60;;;;;;5068925;28;20031;-61
2021/05/19 09:22:31;;;;;;;6.18;1.30;;;14.40;76.60;;;;;;5056690;28;20025;-62
2021/05/19 09:24:57;;;;;;;8.30;1.50;;;14.30;76.70;;;;;;5040551;28;20108;-61
2021/05/19 09:27:23;;;;;;;17.02;1.90;;;14.30;77.10;;;;;;5045072;28;20068;-61
2021/05/19 09:29:50;;;;;;;17.00;1.70;;;14.30;77.80;;;;;;5047680;28;20028;-61
2021/05/19 09:32:17;;;;;;;7.68;1.70;;;14.30;78.00;;;;;;5028258;28;20067;-61
2021/05/19 09:34:44;;;;;;;16.83;2.45;;;14.30;78.40;;;;;;5031430;28;20025;-61
2021/05/19 09:37:12;;;;;;;8.15;2.08;;;14.30;78.40;;;;;;5034753;28;20106;-61
2021/05/19 09:39:51;;;;;;;8.10;1.92;;;14.30;78.80;;;;;;5051302;28;20032;-62
2021/05/19 09:42:18;;;;;;;13.55;1.75;;;14.30;78.80;;;;;;5047977;28;20155;-61
2021/05/19 09:44:46;;;;;;;17.88;2.55;;;14.30;79.30;;;;;;5030376;28;20020;-61
2021/05/19 09:47:12;;;;;;;23.92;3.08;;;14.40;79.40;;;;;;5044248;28;20040;-61
2021/05/19 09:49:38;;;;;;;31.42;3.25;;;14.40;79.70;;;;;;5044964;28;20049;-61
2021/05/19 09:52:11;;;;;;;21.27;3.08;;;14.40;80.20;;;;;;5026567;28;20033;-61
2021/05/19 09:54:44;;;;;;;24.20;3.63;;;14.40;80.50;;;;;;5045001;28;20021;-61
2021/05/19 09:57:14;;;;;;;11.85;2.88;;;14.40;80.70;;;;;;5045392;28;20373;-61
2021/05/19 09:59:44;;;;;;;32.13;3.50;;;14.40;80.80;;;;;;5046631;28;20032;-61
2021/05/19 10:02:10;;;;;;;28.40;3.40;;;14.40;80.70;;;;;;5039260;28;20863;-61
2021/05/19 10:07:02;;;;;;;16.67;2.38;;;14.30;79.70;;;;;;5054139;28;20039;-61
2021/05/19 10:09:28;;;;;;;33.75;3.25;;;14.30;79.60;;;;;;5030005;28;20028;-61
2021/05/19 10:11:54;;;;;;;27.15;3.35;;;14.30;79.60;;;;;;5012552;28;20032;-61
2021/05/19 10:14:21;;;;;;;40.13;3.65;;;14.20;79.40;;;;;;5041326;28;20021;-61
2021/05/19 10:16:48;;;;;;;19.65;3.50;;;14.20;79.70;;;;;;5053426;28;20024;-61
2021/05/19 10:19:19;;;;;;;26.35;3.53;;;14.20;79.40;;;;;;5064236;28;20053;-61
2021/05/19 10:21:44;;;;;;;19.98;3.28;;;14.30;79.40;;;;;;5036091;28;20044;-61
2021/05/19 10:24:11;;;;;;;38.70;4.18;;;14.30;79.20;;;;;;5030792;28;20024;-61
2021/05/19 10:27:07;;;;;;;30.77;4.72;;;14.30;79.10;;;;;;5047683;28;20379;-61
2021/05/19 10:29:48;;;;;;;24.97;3.87;;;14.30;79.10;;;;;;5048722;28;20044;-61
2021/05/19 10:32:28;;;;;;;29.00;4.28;;;14.30;79.10;;;;;;5054974;28;20551;-61
2021/05/19 10:34:58;;;;;;;24.92;3.20;;;14.30;79.00;;;;;;5066860;28;20381;-61
2021/05/19 10:37:26;;;;;;;28.77;3.97;;;14.30;79.20;;;;;;5062752;28;20112;-61
2021/05/19 10:40:18;;;;;;;22.63;3.60;;;14.30;79.20;;;;;;5060280;28;20104;-61
2021/05/19 10:42:54;;;;;;;19.10;3.70;;;14.40;79.20;;;;;;5061718;28;20032;-61
2021/05/19 10:45:20;;;;;;;24.80;4.47;;;14.40;79.30;;;;;;5045487;28;20107;-62
2021/05/19 10:47:46;;;;;;;25.88;4.05;;;14.40;79.70;;;;;;5046951;28;20451;-62
2021/05/19 10:50:25;;;;;;;43.28;4.22;;;14.40;79.50;;;;;;5038825;28;20057;-61
2021/05/19 10:58:51;;;;;;;36.80;3.72;;;14.40;79.40;;;;;;5045562;28;20018;-62
2021/05/19 11:01:38;;;;;;;17.70;3.50;;;14.50;79.30;;;;;;5040491;28;20400;-61
2021/05/19 11:04:16;;;;;;;36.22;3.42;;;14.60;79.40;;;;;;5053791;28;20020;-61
2021/05/19 11:06:57;;;;;;;24.35;3.58;;;14.60;79.80;;;;;;5038666;28;20492;-61
2021/05/19 11:09:24;;;;;;;23.60;3.22;;;14.60;80.00;;;;;;5056447;28;20484;-61
2021/05/19 11:11:50;;;;;;;29.33;4.32;;;14.60;80.20;;;;;;5073445;28;20050;-61
2021/05/19 11:14:45;;;;;;;29.50;4.28;;;14.60;80.10;;;;;;5023446;28;20141;-61
2021/05/19 11:17:17;;;;;;;34.33;4.85;;;14.60;80.00;;;;;;5057946;28;20035;-64
2021/05/19 11:19:42;;;;;;;22.98;3.63;;;14.70;80.10;;;;;;5058912;28;20064;-61
2021/05/19 11:22:10;;;;;;;29.38;3.53;;;14.70;79.70;;;;;;5029535;28;20889;-61
2021/05/19 11:24:58;;;;;;;25.38;3.38;;;14.70;79.40;;;;;;5029046;28;20024;-62
2021/05/19 11:27:28;;;;;;;25.52;3.45;;;14.80;79.40;;;;;;5045346;28;20037;-61
2021/05/19 11:29:54;;;;;;;32.90;4.45;;;14.80;79.10;;;;;;5064240;28;20438;-61
2021/05/19 11:32:22;;;;;;;61.80;5.47;;;14.80;79.10;;;;;;5014924;28;20046;-61
2021/05/19 11:34:48;;;;;;;35.92;4.28;;;14.80;78.90;;;;;;5031854;28;20048;-61
2021/05/19 11:37:15;;;;;;;65.03;5.82;;;14.80;78.90;;;;;;5045886;28;20429;-61
2021/05/19 11:39:45;;;;;;;66.93;5.93;;;14.90;78.90;;;;;;5064256;28;20494;-61
2021/05/19 11:42:23;;;;;;;45.75;5.18;;;14.90;79.00;;;;;;5052498;28;20033;-61
2021/05/19 11:44:56;;;;;;;54.03;4.57;;;14.90;78.80;;;;;;5048838;28;20099;-61
2021/05/19 11:47:31;;;;;;;46.33;5.53;;;15.00;78.80;;;;;;5047554;28;20040;-61
2021/05/19 11:50:06;;;;;;;48.83;6.10;;;15.00;78.80;;;;;;5059724;28;20365;-61
2021/05/19 11:52:52;;;;;;;72.32;8.55;;;15.10;78.80;;;;;;5061510;28;20027;-61
2021/05/19 11:55:35;;;;;;;;;;;15.10;78.70;;;;;;5048112;28;20574;-61
2021/05/19 11:58:19;;;;;;;74.78;7.70;;;15.30;78.40;;;;;;5058575;28;20328;-61
2021/05/19 12:00:58;;;;;;;61.67;6.85;;;15.40;78.10;;;;;;5041011;28;20024;-61
2021/05/19 12:03:25;;;;;;;58.72;5.80;;;15.50;77.90;;;;;;5055771;28;20032;-61
2021/05/19 12:05:55;;;;;;;63.92;6.15;;;15.60;77.60;;;;;;5049303;28;20036;-61
2021/05/19 12:08:22;;;;;;;60.50;6.00;;;15.70;77.60;;;;;;5045622;28;20079;-62
2021/05/19 12:11:00;;;;;;;54.72;5.15;;;15.80;77.40;;;;;;5051983;28;20028;-61
2021/05/19 12:13:26;;;;;;;46.47;4.90;;;15.90;76.90;;;;;;5017517;28;20032;-61
2021/05/19 12:15:51;;;;;;;62.50;5.78;;;16.00;76.30;;;;;;5045449;28;20059;-61
2021/05/19 12:18:17;;;;;;;63.45;5.75;;;16.00;76.00;;;;;;5048442;28;20059;-61
2021/05/19 12:20:42;;;;;;;90.10;8.35;;;16.20;75.80;;;;;;5037890;28;20128;-61
2021/05/19 12:23:08;;;;;;;61.60;6.72;;;16.20;75.60;;;;;;5066622;28;20506;-62
2021/05/19 12:25:34;;;;;;;67.70;6.40;;;16.30;75.20;;;;;;5039204;28;20471;-62
2021/05/19 12:28:05;;;;;;;46.38;5.05;;;16.40;75.00;;;;;;5047849;28;20715;-60
2021/05/19 12:30:46;;;;;;;76.45;7.55;;;16.50;74.60;;;;;;5057978;28;20035;-61
2021/05/19 12:33:14;;;;;;;54.92;5.35;;;16.50;74.30;;;;;;5044552;28;20032;-60
2021/05/19 12:35:45;;;;;;;61.22;5.90;;;16.70;74.10;;;;;;5075012;28;20077;-60
2021/05/19 12:38:11;;;;;;;56.72;6.82;;;16.80;74.00;;;;;;5047387;28;20051;-61
2021/05/19 12:40:37;;;;;;;47.40;5.65;;;16.90;73.80;;;;;;5037182;28;20395;-60
2021/05/19 12:43:05;;;;;;;54.47;6.18;;;16.90;73.50;;;;;;5045510;28;20059;-61
2021/05/19 12:45:43;;;;;;;62.42;6.78;;;17.00;73.30;;;;;;5041665;28;20517;-61
2021/05/19 12:48:10;;;;;;;57.00;6.00;;;17.20;73.10;;;;;;5047128;28;20054;-61
2021/05/19 12:50:49;;;;;;;47.05;6.55;;;17.30;72.70;;;;;;5055505;28;20029;-61
2021/05/19 12:53:30;;;;;;;52.72;5.65;;;17.40;72.30;;;;;;5053330;28;20033;-60
2021/05/19 12:56:00;;;;;;;57.38;6.63;;;17.40;72.10;;;;;;5057658;28;20032;-61